createdAt,value
2019-05-06T00:01:45.171Z,2.20
2019-05-06T00:06:51.347Z,2.27
2019-05-06T00:11:55.090Z,2.20
2019-05-06T00:17:04.465Z,2.20
2019-05-06T00:22:10.125Z,2.30
2019-05-06T00:27:27.032Z,2.77
2019-05-06T00:32:30.638Z,2.57
2019-05-06T00:37:34.886Z,2.40
2019-05-06T00:42:44.524Z,2.53
2019-05-06T00:47:48.190Z,2.40
2019-05-06T00:52:53.924Z,2.50
2019-05-06T00:58:00.373Z,2.77
2019-05-06T01:03:04.366Z,2.83
2019-05-06T01:08:16.317Z,3.30
2019-05-06T01:13:39.656Z,2.60
2019-05-06T01:18:46.250Z,2.53
2019-05-06T01:23:55.412Z,3.20
2019-05-06T01:28:59.012Z,3.10
2019-05-06T01:34:22.005Z,2.97
2019-05-06T01:39:27.248Z,3.10
2019-05-06T01:44:30.878Z,2.70
2019-05-06T01:49:37.188Z,3.00
2019-05-06T01:54:45.315Z,3.20
2019-05-06T02:00:01.290Z,2.83
2019-05-06T02:05:05.731Z,3.20
2019-05-06T02:10:09.389Z,2.83
2019-05-06T02:15:14.883Z,3.10
2019-05-06T02:20:18.488Z,3.00
2019-05-06T02:25:26.728Z,2.90
2019-05-06T02:30:37.699Z,2.90
2019-05-06T02:35:45.392Z,3.40
2019-05-06T02:40:48.211Z,2.93
2019-05-06T02:45:53.058Z,3.50
2019-05-06T02:51:03.755Z,3.77
2019-05-06T02:56:06.746Z,3.17
2019-05-06T03:01:13.376Z,3.30
2019-05-06T03:06:17.365Z,3.40
2019-05-06T03:11:24.739Z,3.80
2019-05-06T03:16:33.392Z,3.30
2019-05-06T03:21:38.643Z,3.23
2019-05-06T03:26:56.776Z,3.20
2019-05-06T03:32:07.245Z,3.40
2019-05-06T03:37:23.696Z,3.13
2019-05-06T03:42:28.056Z,3.27
2019-05-06T03:47:43.314Z,3.30
2019-05-06T03:52:47.601Z,3.13
2019-05-06T03:57:53.964Z,3.43
2019-05-06T04:02:59.410Z,3.90
2019-05-06T04:08:04.799Z,3.40
2019-05-06T04:13:13.286Z,3.77
2019-05-06T04:18:16.570Z,3.40
2019-05-06T04:23:23.454Z,3.37
2019-05-06T04:28:30.354Z,3.20
2019-05-06T04:34:10.126Z,6.90
2019-05-06T04:39:04.371Z,5.73
2019-05-06T04:44:13.568Z,4.67
2019-05-06T04:49:15.446Z,4.50
2019-05-06T04:54:26.496Z,3.73
2019-05-06T04:59:32.603Z,4.73
2019-05-06T05:04:38.202Z,5.07
2019-05-06T05:09:42.985Z,4.63
2019-05-06T05:15:06.972Z,5.03
2019-05-06T05:20:14.390Z,5.00
2019-05-06T05:25:18.414Z,5.07
2019-05-06T05:30:22.123Z,5.33
2019-05-06T05:35:25.968Z,4.80
2019-05-06T05:40:32.189Z,5.00
2019-05-06T05:45:38.533Z,4.87
2019-05-06T05:50:53.841Z,5.30
2019-05-06T05:56:17.069Z,4.70
2019-05-06T06:01:23.318Z,5.30
2019-05-06T06:06:29.541Z,5.53
2019-05-06T06:11:38.490Z,5.63
2019-05-06T06:16:49.590Z,6.60
2019-05-06T06:22:02.612Z,6.70
2019-05-06T06:27:06.350Z,5.90
2019-05-06T06:32:22.935Z,6.27
2019-05-06T06:37:43.103Z,6.87
2019-05-06T06:42:52.439Z,7.87
2019-05-06T06:47:58.902Z,6.73
2019-05-06T06:53:08.362Z,7.00
2019-05-06T06:58:22.742Z,7.17
2019-05-06T07:03:28.678Z,7.30
2019-05-06T07:08:42.641Z,7.40
2019-05-06T07:13:57.635Z,7.47
2019-05-06T07:19:05.879Z,6.43
2019-05-06T07:24:13.031Z,7.20
2019-05-06T07:29:24.259Z,6.90
2019-05-06T07:34:27.568Z,6.97
2019-05-06T07:39:34.212Z,6.70
2019-05-06T07:44:42.325Z,5.97
2019-05-06T07:49:46.116Z,6.57
2019-05-06T07:54:53.178Z,6.63
2019-05-06T07:59:56.742Z,6.70
2019-05-06T08:05:02.737Z,6.10
2019-05-06T08:10:14.455Z,6.70
2019-05-06T08:15:18.668Z,6.53
2019-05-06T08:20:24.163Z,5.93
2019-05-06T08:25:29.411Z,5.40
2019-05-06T08:30:39.065Z,6.60
2019-05-06T08:35:45.930Z,5.70
2019-05-06T08:40:57.834Z,5.00
2019-05-06T08:46:04.755Z,5.37
2019-05-06T08:51:10.011Z,5.10
2019-05-06T08:56:16.472Z,5.37
2019-05-06T09:01:22.853Z,5.57
2019-05-06T09:06:30.479Z,6.37
2019-05-06T09:11:34.496Z,5.10
2019-05-06T09:16:38.562Z,4.80
2019-05-06T09:21:45.947Z,4.57
2019-05-06T09:26:58.893Z,4.73
2019-05-06T09:32:07.168Z,3.73
2019-05-06T09:37:14.879Z,4.10
2019-05-06T09:42:22.828Z,3.80
2019-05-06T09:47:39.620Z,3.77
2019-05-06T09:52:43.245Z,3.10
2019-05-06T09:58:04.935Z,3.30
2019-05-06T10:03:11.374Z,3.30
2019-05-06T10:08:19.775Z,3.07
2019-05-06T10:13:23.381Z,3.23
2019-05-06T10:18:28.760Z,3.70
2019-05-06T10:23:32.823Z,3.40
2019-05-06T10:28:39.392Z,2.77
2019-05-06T10:34:03.066Z,2.50
2019-05-06T10:39:10.062Z,2.60
2019-05-06T10:44:33.213Z,2.53
2019-05-06T10:49:46.651Z,2.43
2019-05-06T10:54:50.988Z,2.53
2019-05-06T11:00:00.556Z,2.40
2019-05-06T11:05:06.174Z,2.20
2019-05-06T11:10:23.911Z,3.13
2019-05-06T11:15:23.256Z,2.67
2019-05-06T11:20:28.227Z,2.30
2019-05-06T11:25:33.477Z,2.07
2019-05-06T11:30:38.721Z,2.63
2019-05-06T11:36:02.014Z,2.93
2019-05-06T11:41:07.216Z,2.10
2019-05-06T11:46:16.461Z,2.30
2019-05-06T11:51:24.283Z,2.47
2019-05-06T11:56:47.557Z,2.60
2019-05-06T12:01:53.159Z,2.60
2019-05-06T12:07:11.040Z,3.30
2019-05-06T12:12:06.452Z,3.50
2019-05-06T12:17:12.936Z,3.80
2019-05-06T12:22:21.977Z,3.97
2019-05-06T12:27:48.461Z,4.17
2019-05-06T12:33:05.421Z,3.50
2019-05-06T12:38:27.488Z,3.43
2019-05-06T12:43:29.526Z,3.57
2019-05-06T12:48:44.134Z,3.47
2019-05-06T12:53:52.720Z,3.47
2019-05-06T12:58:59.024Z,3.13
2019-05-06T13:04:04.458Z,3.07
2019-05-06T13:09:12.707Z,2.57
2019-05-06T13:14:25.948Z,3.30
2019-05-06T13:19:32.024Z,2.97
2019-05-06T13:24:37.558Z,2.93
2019-05-06T13:29:43.982Z,3.10
2019-05-06T13:34:52.493Z,2.60
2019-05-06T13:40:03.344Z,2.67
2019-05-06T13:45:07.143Z,2.60
2019-05-06T13:50:16.539Z,2.67
2019-05-06T13:55:25.729Z,3.03
2019-05-06T14:00:30.010Z,2.70
2019-05-06T14:05:35.327Z,2.83
2019-05-06T14:10:42.456Z,2.90
2019-05-06T14:15:48.838Z,3.47
2019-05-06T14:20:54.918Z,2.73
2019-05-06T14:26:12.664Z,2.33
2019-05-06T14:31:25.306Z,2.90
2019-05-06T14:36:36.508Z,2.40
2019-05-06T14:41:32.817Z,2.47
2019-05-06T14:47:00.373Z,2.70
2019-05-06T14:52:12.782Z,2.57
2019-05-06T14:57:25.237Z,3.10
2019-05-06T15:02:29.440Z,2.90
2019-05-06T15:07:33.137Z,2.30
2019-05-06T15:12:42.835Z,2.90
2019-05-06T15:18:02.866Z,3.33
2019-05-06T15:23:06.562Z,2.83
2019-05-06T15:28:16.394Z,3.27
2019-05-06T15:33:22.430Z,5.00
2019-05-06T15:38:27.874Z,3.60
2019-05-06T15:43:33.362Z,3.60
2019-05-06T15:48:37.003Z,3.40
2019-05-06T15:53:43.795Z,3.90
2019-05-06T15:58:47.444Z,4.10
2019-05-06T16:03:53.347Z,3.90
2019-05-06T16:08:57.966Z,4.40
2019-05-06T16:14:05.996Z,3.70
2019-05-06T16:19:12.796Z,4.03
2019-05-06T16:24:18.792Z,4.10
2019-05-06T16:29:37.507Z,4.00
2019-05-06T16:34:44.014Z,9.30
2019-05-06T16:39:47.756Z,6.47
2019-05-06T16:44:54.423Z,4.33
2019-05-06T16:50:01.218Z,4.40
2019-05-06T16:55:07.189Z,4.70
2019-05-06T17:00:15.768Z,4.53
2019-05-06T17:05:39.234Z,4.10
2019-05-06T17:10:45.784Z,4.43
2019-05-06T17:15:50.076Z,4.23
2019-05-06T17:20:56.269Z,4.63
2019-05-06T17:26:01.653Z,4.47
2019-05-06T17:31:22.406Z,4.10
2019-05-06T17:36:35.291Z,4.60
2019-05-06T17:41:45.925Z,4.30
2019-05-06T17:46:46.557Z,4.07
2019-05-06T17:52:09.836Z,4.30
2019-05-06T17:57:13.452Z,4.60
2019-05-06T18:02:19.306Z,10.30
2019-05-06T18:07:25.963Z,5.97
2019-05-06T18:12:33.178Z,5.30
2019-05-06T18:17:39.343Z,5.80
2019-05-06T18:22:42.949Z,6.40
2019-05-06T18:27:46.638Z,8.30
2019-05-06T18:32:51.985Z,13.13
2019-05-06T18:37:55.575Z,5.70
2019-05-06T18:42:59.109Z,5.13
2019-05-06T18:48:02.928Z,9.47
2019-05-06T18:53:06.717Z,5.50
2019-05-06T18:58:12.711Z,4.70
2019-05-06T19:03:15.784Z,5.40
2019-05-06T19:08:21.965Z,4.93
2019-05-06T19:13:27.218Z,6.00
2019-05-06T19:18:38.698Z,4.73
2019-05-06T19:23:44.880Z,4.90
2019-05-06T19:28:48.480Z,5.20
2019-05-06T19:33:52.590Z,5.37
2019-05-06T19:38:56.479Z,5.53
2019-05-06T19:44:02.165Z,5.63
2019-05-06T19:49:05.810Z,5.47
2019-05-06T19:54:09.426Z,5.17
2019-05-06T19:59:13.120Z,5.50
2019-05-06T20:04:17.160Z,5.57
2019-05-06T20:09:38.982Z,5.00
2019-05-06T20:14:42.663Z,4.20
2019-05-06T20:19:46.276Z,4.60
2019-05-06T20:24:52.063Z,4.00
2019-05-06T20:29:55.777Z,3.80
2019-05-06T20:34:59.454Z,3.83
2019-05-06T20:40:06.630Z,3.67
2019-05-06T20:45:12.833Z,4.10
2019-05-06T20:50:16.803Z,4.23
2019-05-06T20:55:22.689Z,3.70
2019-05-06T21:00:27.644Z,3.60
2019-05-06T21:05:36.333Z,3.67
2019-05-06T21:10:49.490Z,4.30
2019-05-06T21:15:51.809Z,4.20
2019-05-06T21:20:58.664Z,4.00
2019-05-06T21:26:03.902Z,4.30
2019-05-06T21:31:20.798Z,4.87
2019-05-06T21:36:24.481Z,3.70
2019-05-06T21:41:28.091Z,4.40
2019-05-06T21:46:31.970Z,4.23
2019-05-06T21:51:36.190Z,4.73
2019-05-06T21:56:39.855Z,4.37
2019-05-06T22:01:43.587Z,4.27
2019-05-06T22:06:52.242Z,4.33
2019-05-06T22:11:55.299Z,4.80
2019-05-06T22:17:03.816Z,4.80
2019-05-06T22:22:20.563Z,3.97
2019-05-06T22:27:27.606Z,4.73
2019-05-06T22:32:33.137Z,4.50
2019-05-06T22:37:39.383Z,4.10
2019-05-06T22:42:43.227Z,4.70
2019-05-06T22:47:50.600Z,5.53
2019-05-06T22:52:55.223Z,5.23
2019-05-06T22:57:58.790Z,4.60
2019-05-06T23:03:06.943Z,4.77
2019-05-06T23:08:13.354Z,5.17
2019-05-06T23:13:23.185Z,4.90
2019-05-06T23:18:27.123Z,4.87
2019-05-06T23:23:32.763Z,5.37
2019-05-06T23:28:36.172Z,5.27
2019-05-06T23:33:45.850Z,5.70
2019-05-06T23:39:28.650Z,5.20
2019-05-06T23:45:08.669Z,5.60
2019-05-06T23:50:51.878Z,5.20
2019-05-06T23:56:32.643Z,5.40
